sensor_id;sensor_type;location;lat;lon;timestamp;pressure;altitude;pressure_sealevel;temperature;humidity
55916;BME280;41826;53.246;-6.670;2023-01-28T00:00:30;102925.19;;;3.55;100.00
55916;BME280;41826;53.246;-6.670;2023-01-28T00:02:55;102925.19;;;3.55;100.00
55916;BME280;41826;53.246;-6.670;2023-01-28T00:05:20;102923.34;;;3.59;100.00
55916;BME280;41826;53.246;-6.670;2023-01-28T00:07:48;102907.09;;;3.52;100.00
55916;BME280;41826;53.246;-6.670;2023-01-28T00:10:14;102903.50;;;3.56;100.00
55916;BME280;41826;53.246;-6.670;2023-01-28T00:12:40;102907.22;;;3.47;100.00
55916;BME280;41826;53.246;-6.670;2023-01-28T00:15:09;102891.50;;;3.52;100.00
55916;BME280;41826;53.246;-6.670;2023-01-28T00:17:36;102891.81;;;3.71;100.00
55916;BME280;41826;53.246;-6.670;2023-01-28T00:20:05;102884.63;;;3.79;100.00
55916;BME280;41826;53.246;-6.670;2023-01-28T00:22:32;102886.31;;;3.52;100.00
55916;BME280;41826;53.246;-6.670;2023-01-28T00:24:58;102895.25;;;3.42;100.00
55916;BME280;41826;53.246;-6.670;2023-01-28T00:27:24;102896.75;;;3.49;100.00
55916;BME280;41826;53.246;-6.670;2023-01-28T00:29:50;102894.53;;;3.66;100.00
55916;BME280;41826;53.246;-6.670;2023-01-28T00:32:15;102906.84;;;3.89;100.00
55916;BME280;41826;53.246;-6.670;2023-01-28T00:34:40;102897.91;;;3.70;100.00
55916;BME280;41826;53.246;-6.670;2023-01-28T00:37:06;102902.66;;;3.56;100.00
55916;BME280;41826;53.246;-6.670;2023-01-28T00:39:32;102910.25;;;3.62;100.00
55916;BME280;41826;53.246;-6.670;2023-01-28T00:41:57;102904.84;;;3.69;100.00
55916;BME280;41826;53.246;-6.670;2023-01-28T00:44:23;102899.56;;;3.73;100.00
55916;BME280;41826;53.246;-6.670;2023-01-28T00:46:48;102906.13;;;3.84;100.00
55916;BME280;41826;53.246;-6.670;2023-01-28T00:49:14;102900.56;;;3.68;100.00
55916;BME280;41826;53.246;-6.670;2023-01-28T00:51:39;102901.28;;;3.72;100.00
55916;BME280;41826;53.246;-6.670;2023-01-28T00:54:05;102888.31;;;3.72;100.00
55916;BME280;41826;53.246;-6.670;2023-01-28T00:56:30;102899.56;;;3.73;100.00
55916;BME280;41826;53.246;-6.670;2023-01-28T00:58:56;102885.00;;;3.67;100.00
55916;BME280;41826;53.246;-6.670;2023-01-28T01:01:23;102888.63;;;3.91;100.00
55916;BME280;41826;53.246;-6.670;2023-01-28T01:03:49;102874.53;;;3.70;100.00
55916;BME280;41826;53.246;-6.670;2023-01-28T01:06:30;102876.03;;;3.77;100.00
55916;BME280;41826;53.246;-6.670;2023-01-28T01:08:56;102874.09;;;3.85;100.00
55916;BME280;41826;53.246;-6.670;2023-01-28T01:11:22;102865.56;;;3.80;100.00
55916;BME280;41826;53.246;-6.670;2023-01-28T01:13:55;102860.41;;;3.79;100.00
55916;BME280;41826;53.246;-6.670;2023-01-28T01:16:25;102858.84;;;3.73;100.00
55916;BME280;41826;53.246;-6.670;2023-01-28T01:18:52;102844.16;;;3.72;100.00
55916;BME280;41826;53.246;-6.670;2023-01-28T01:21:19;102854.59;;;3.71;100.00
55916;BME280;41826;53.246;-6.670;2023-01-28T01:23:45;102857.38;;;3.64;100.00
55916;BME280;41826;53.246;-6.670;2023-01-28T01:26:12;102861.09;;;3.56;100.00
55916;BME280;41826;53.246;-6.670;2023-01-28T01:28:39;102854.63;;;3.69;100.00
55916;BME280;41826;53.246;-6.670;2023-01-28T01:31:15;102853.47;;;3.79;100.00
55916;BME280;41826;53.246;-6.670;2023-01-28T01:33:42;102851.50;;;3.87;100.00
55916;BME280;41826;53.246;-6.670;2023-01-28T01:36:11;102861.75;;;3.92;100.00
55916;BME280;41826;53.246;-6.670;2023-01-28T01:38:37;102863.78;;;3.82;100.00
55916;BME280;41826;53.246;-6.670;2023-01-28T01:41:04;102858.72;;;4.06;100.00
55916;BME280;41826;53.246;-6.670;2023-01-28T01:44:05;102852.47;;;3.85;100.00
55916;BME280;41826;53.246;-6.670;2023-01-28T01:46:42;102858.44;;;3.87;100.00
55916;BME280;41826;53.246;-6.670;2023-01-28T01:49:26;102849.88;;;3.83;100.00
55916;BME280;41826;53.246;-6.670;2023-01-28T01:51:59;102842.25;;;3.77;100.00
55916;BME280;41826;53.246;-6.670;2023-01-28T01:54:28;102834.19;;;3.58;100.00
55916;BME280;41826;53.246;-6.670;2023-01-28T01:56:56;102836.06;;;3.53;100.00
55916;BME280;41826;53.246;-6.670;2023-01-28T01:59:27;102844.38;;;3.64;100.00
55916;BME280;41826;53.246;-6.670;2023-01-28T02:01:53;102842.22;;;3.79;100.00
55916;BME280;41826;53.246;-6.670;2023-01-28T02:04:25;102843.91;;;3.80;100.00
55916;BME280;41826;53.246;-6.670;2023-01-28T02:06:53;102844.94;;;3.76;100.00
55916;BME280;41826;53.246;-6.670;2023-01-28T02:11:49;102865.25;;;3.91;100.00
55916;BME280;41826;53.246;-6.670;2023-01-28T02:14:16;102859.59;;;4.05;100.00
55916;BME280;41826;53.246;-6.670;2023-01-28T02:16:42;102871.53;;;3.84;100.00
55916;BME280;41826;53.246;-6.670;2023-01-28T02:19:08;102877.91;;;3.72;100.00
55916;BME280;41826;53.246;-6.670;2023-01-28T02:27:13;102875.16;;;3.78;100.00
55916;BME280;41826;53.246;-6.670;2023-01-28T02:29:53;102877.06;;;3.72;100.00
55916;BME280;41826;53.246;-6.670;2023-01-28T02:32:26;102874.25;;;3.79;100.00
55916;BME280;41826;53.246;-6.670;2023-01-28T02:35:02;102870.72;;;3.82;100.00
55916;BME280;41826;53.246;-6.670;2023-01-28T02:37:45;102870.69;;;3.83;100.00
55916;BME280;41826;53.246;-6.670;2023-01-28T02:40:21;102872.28;;;3.87;100.00
55916;BME280;41826;53.246;-6.670;2023-01-28T02:42:49;102877.78;;;3.77;100.00
55916;BME280;41826;53.246;-6.670;2023-01-28T02:45:18;102870.56;;;3.86;100.00
55916;BME280;41826;53.246;-6.670;2023-01-28T02:47:45;102865.81;;;4.01;100.00
55916;BME280;41826;53.246;-6.670;2023-01-28T02:50:22;102860.28;;;3.83;100.00
55916;BME280;41826;53.246;-6.670;2023-01-28T02:53:14;102854.25;;;3.83;100.00
55916;BME280;41826;53.246;-6.670;2023-01-28T02:56:36;102836.28;;;3.75;100.00
55916;BME280;41826;53.246;-6.670;2023-01-28T03:02:02;102823.66;;;3.91;100.00
55916;BME280;41826;53.246;-6.670;2023-01-28T03:04:58;102825.44;;;3.90;100.00
55916;BME280;41826;53.246;-6.670;2023-01-28T03:07:28;102811.72;;;3.85;100.00
55916;BME280;41826;53.246;-6.670;2023-01-28T03:09:55;102810.22;;;3.78;100.00
55916;BME280;41826;53.246;-6.670;2023-01-28T03:12:25;102796.53;;;3.73;100.00
55916;BME280;41826;53.246;-6.670;2023-01-28T03:15:21;102787.91;;;3.71;100.00
55916;BME280;41826;53.246;-6.670;2023-01-28T03:18:12;102783.44;;;3.76;100.00
55916;BME280;41826;53.246;-6.670;2023-01-28T03:21:21;102779.88;;;3.79;100.00
55916;BME280;41826;53.246;-6.670;2023-01-28T03:24:14;102775.63;;;3.76;100.00
55916;BME280;41826;53.246;-6.670;2023-01-28T03:29:55;102765.84;;;3.56;100.00
55916;BME280;41826;53.246;-6.670;2023-01-28T03:32:42;102756.75;;;3.71;100.00
55916;BME280;41826;53.246;-6.670;2023-01-28T03:35:32;102759.91;;;3.53;100.00
55916;BME280;41826;53.246;-6.670;2023-01-28T03:38:19;102763.34;;;3.81;100.00
55916;BME280;41826;53.246;-6.670;2023-01-28T03:40:56;102762.47;;;3.82;100.00
55916;BME280;41826;53.246;-6.670;2023-01-28T03:43:24;102764.84;;;3.88;100.00
55916;BME280;41826;53.246;-6.670;2023-01-28T03:45:50;102751.31;;;3.79;100.00
55916;BME280;41826;53.246;-6.670;2023-01-28T03:48:20;102737.34;;;3.83;100.00
55916;BME280;41826;53.246;-6.670;2023-01-28T03:50:46;102736.31;;;3.87;100.00
55916;BME280;41826;53.246;-6.670;2023-01-28T03:53:13;102747.91;;;3.77;100.00
55916;BME280;41826;53.246;-6.670;2023-01-28T03:55:43;102746.47;;;3.95;100.00
55916;BME280;41826;53.246;-6.670;2023-01-28T03:58:09;102742.28;;;3.90;100.00
55916;BME280;41826;53.246;-6.670;2023-01-28T04:00:35;102737.53;;;4.03;100.00
55916;BME280;41826;53.246;-6.670;2023-01-28T04:03:12;102738.59;;;3.98;100.00
55916;BME280;41826;53.246;-6.670;2023-01-28T04:05:42;102737.47;;;3.78;100.00
55916;BME280;41826;53.246;-6.670;2023-01-28T04:08:08;102742.47;;;3.84;100.00
55916;BME280;41826;53.246;-6.670;2023-01-28T04:10:33;102737.97;;;3.89;100.00
55916;BME280;41826;53.246;-6.670;2023-01-28T04:13:01;102745.63;;;3.94;100.00
55916;BME280;41826;53.246;-6.670;2023-01-28T04:15:26;102754.59;;;3.84;100.00
55916;BME280;41826;53.246;-6.670;2023-01-28T04:17:51;102746.06;;;3.80;100.00
55916;BME280;41826;53.246;-6.670;2023-01-28T04:20:17;102742.06;;;3.97;100.00
55916;BME280;41826;53.246;-6.670;2023-01-28T04:22:42;102747.59;;;3.87;100.00
55916;BME280;41826;53.246;-6.670;2023-01-28T04:25:08;102744.88;;;3.90;100.00
55916;BME280;41826;53.246;-6.670;2023-01-28T04:27:34;102733.78;;;3.85;100.00
55916;BME280;41826;53.246;-6.670;2023-01-28T04:29:59;102725.84;;;3.90;100.00
55916;BME280;41826;53.246;-6.670;2023-01-28T04:32:26;102717.44;;;4.08;100.00
55916;BME280;41826;53.246;-6.670;2023-01-28T04:34:51;102726.13;;;4.07;100.00
55916;BME280;41826;53.246;-6.670;2023-01-28T04:37:16;102713.09;;;4.09;100.00
55916;BME280;41826;53.246;-6.670;2023-01-28T04:39:42;102717.72;;;3.99;100.00
55916;BME280;41826;53.246;-6.670;2023-01-28T04:42:07;102719.91;;;4.11;100.00
55916;BME280;41826;53.246;-6.670;2023-01-28T04:44:33;102723.78;;;4.00;100.00
55916;BME280;41826;53.246;-6.670;2023-01-28T04:46:58;102731.16;;;4.12;100.00
55916;BME280;41826;53.246;-6.670;2023-01-28T04:49:23;102749.13;;;3.93;100.00
55916;BME280;41826;53.246;-6.670;2023-01-28T04:51:49;102747.25;;;3.97;100.00
55916;BME280;41826;53.246;-6.670;2023-01-28T04:54:14;102748.75;;;4.04;100.00
55916;BME280;41826;53.246;-6.670;2023-01-28T04:56:40;102747.59;;;3.87;100.00
55916;BME280;41826;53.246;-6.670;2023-01-28T04:59:05;102751.16;;;3.83;100.00
55916;BME280;41826;53.246;-6.670;2023-01-28T05:01:30;102746.88;;;3.82;100.00
55916;BME280;41826;53.246;-6.670;2023-01-28T05:03:56;102753.06;;;3.78;100.00
55916;BME280;41826;53.246;-6.670;2023-01-28T05:06:21;102745.72;;;3.91;100.00
55916;BME280;41826;53.246;-6.670;2023-01-28T05:08:47;102754.88;;;4.03;100.00
55916;BME280;41826;53.246;-6.670;2023-01-28T05:11:13;102749.81;;;3.98;100.00
55916;BME280;41826;53.246;-6.670;2023-01-28T05:13:38;102746.03;;;4.08;100.00
55916;BME280;41826;53.246;-6.670;2023-01-28T05:16:04;102757.47;;;4.03;100.00
55916;BME280;41826;53.246;-6.670;2023-01-28T05:18:30;102753.94;;;4.05;100.00
55916;BME280;41826;53.246;-6.670;2023-01-28T05:20:56;102752.88;;;4.11;100.00
55916;BME280;41826;53.246;-6.670;2023-01-28T05:23:22;102757.91;;;4.16;100.00
55916;BME280;41826;53.246;-6.670;2023-01-28T05:25:48;102760.66;;;4.11;100.00
55916;BME280;41826;53.246;-6.670;2023-01-28T05:28:14;102758.66;;;4.19;100.00
55916;BME280;41826;53.246;-6.670;2023-01-28T05:30:39;102769.91;;;4.20;100.00
55916;BME280;41826;53.246;-6.670;2023-01-28T05:33:05;102774.47;;;4.13;100.00
55916;BME280;41826;53.246;-6.670;2023-01-28T05:35:30;102763.69;;;3.97;100.00
55916;BME280;41826;53.246;-6.670;2023-01-28T05:37:55;102769.72;;;4.26;100.00
55916;BME280;41826;53.246;-6.670;2023-01-28T05:40:21;102772.06;;;4.07;100.00
55916;BME280;41826;53.246;-6.670;2023-01-28T05:42:46;102766.81;;;4.08;100.00
55916;BME280;41826;53.246;-6.670;2023-01-28T05:45:12;102760.31;;;4.22;100.00
55916;BME280;41826;53.246;-6.670;2023-01-28T05:47:37;102770.75;;;4.20;100.00
55916;BME280;41826;53.246;-6.670;2023-01-28T05:50:04;102769.84;;;3.95;100.00
55916;BME280;41826;53.246;-6.670;2023-01-28T05:52:29;102766.72;;;4.11;100.00
55916;BME280;41826;53.246;-6.670;2023-01-28T05:54:55;102769.44;;;4.07;100.00
55916;BME280;41826;53.246;-6.670;2023-01-28T05:57:20;102756.97;;;4.18;100.00
55916;BME280;41826;53.246;-6.670;2023-01-28T05:59:46;102756.16;;;4.16;100.00
55916;BME280;41826;53.246;-6.670;2023-01-28T06:02:11;102757.75;;;4.20;100.00
55916;BME280;41826;53.246;-6.670;2023-01-28T06:04:36;102740.88;;;4.32;100.00
55916;BME280;41826;53.246;-6.670;2023-01-28T06:07:03;102742.31;;;4.16;100.00
55916;BME280;41826;53.246;-6.670;2023-01-28T06:09:28;102751.06;;;4.13;100.00
55916;BME280;41826;53.246;-6.670;2023-01-28T06:11:54;102746.81;;;4.10;100.00
55916;BME280;41826;53.246;-6.670;2023-01-28T06:14:20;102733.19;;;4.29;100.00
55916;BME280;41826;53.246;-6.670;2023-01-28T06:16:46;102740.31;;;3.97;100.00
55916;BME280;41826;53.246;-6.670;2023-01-28T06:19:11;102719.91;;;4.11;100.00
55916;BME280;41826;53.246;-6.670;2023-01-28T06:21:36;102721.03;;;4.29;100.00
55916;BME280;41826;53.246;-6.670;2023-01-28T06:24:02;102715.81;;;4.31;100.00
55916;BME280;41826;53.246;-6.670;2023-01-28T06:26:27;102713.47;;;4.23;100.00
55916;BME280;41826;53.246;-6.670;2023-01-28T06:28:53;102715.38;;;4.18;100.00
55916;BME280;41826;53.246;-6.670;2023-01-28T06:31:18;102728.97;;;4.26;100.00
55916;BME280;41826;53.246;-6.670;2023-01-28T06:33:43;102725.44;;;4.27;100.00
55916;BME280;41826;53.246;-6.670;2023-01-28T06:36:09;102723.09;;;4.20;100.00
55916;BME280;41826;53.246;-6.670;2023-01-28T06:38:36;102714.84;;;4.33;100.00
55916;BME280;41826;53.246;-6.670;2023-01-28T06:41:01;102718.47;;;4.28;100.00
55916;BME280;41826;53.246;-6.670;2023-01-28T06:43:26;102716.91;;;4.24;100.00
55916;BME280;41826;53.246;-6.670;2023-01-28T06:45:53;102707.59;;;4.18;100.00
55916;BME280;41826;53.246;-6.670;2023-01-28T06:48:19;102703.81;;;4.27;100.00
55916;BME280;41826;53.246;-6.670;2023-01-28T06:50:48;102702.13;;;4.26;100.00
55916;BME280;41826;53.246;-6.670;2023-01-28T06:53:16;102705.41;;;4.31;100.00
55916;BME280;41826;53.246;-6.670;2023-01-28T06:55:42;102697.75;;;4.26;100.00
55916;BME280;41826;53.246;-6.670;2023-01-28T06:58:08;102705.94;;;4.16;100.00
55916;BME280;41826;53.246;-6.670;2023-01-28T07:00:33;102701.34;;;4.22;100.00
55916;BME280;41826;53.246;-6.670;2023-01-28T07:02:59;102692.44;;;4.29;100.00
55916;BME280;41826;53.246;-6.670;2023-01-28T07:05:24;102679.06;;;4.40;100.00
55916;BME280;41826;53.246;-6.670;2023-01-28T07:07:50;102680.34;;;4.28;100.00
55916;BME280;41826;53.246;-6.670;2023-01-28T07:10:17;102682.28;;;4.23;100.00
55916;BME280;41826;53.246;-6.670;2023-01-28T07:12:42;102675.25;;;4.25;100.00
55916;BME280;41826;53.246;-6.670;2023-01-28T07:15:08;102685.59;;;4.27;100.00
55916;BME280;41826;53.246;-6.670;2023-01-28T07:17:39;102682.47;;;4.17;100.00
55916;BME280;41826;53.246;-6.670;2023-01-28T07:20:06;102670.16;;;4.22;100.00
55916;BME280;41826;53.246;-6.670;2023-01-28T07:22:32;102666.34;;;4.32;100.00
55916;BME280;41826;53.246;-6.670;2023-01-28T07:24:57;102668.06;;;4.33;100.00
55916;BME280;41826;53.246;-6.670;2023-01-28T07:27:23;102663.28;;;4.21;100.00
55916;BME280;41826;53.246;-6.670;2023-01-28T07:29:48;102653.00;;;4.18;100.00
55916;BME280;41826;53.246;-6.670;2023-01-28T07:32:14;102641.22;;;4.33;100.00
55916;BME280;41826;53.246;-6.670;2023-01-28T07:34:39;102633.59;;;4.27;100.00
55916;BME280;41826;53.246;-6.670;2023-01-28T07:37:07;102637.69;;;4.34;100.00
55916;BME280;41826;53.246;-6.670;2023-01-28T07:39:33;102629.63;;;4.42;100.00
55916;BME280;41826;53.246;-6.670;2023-01-28T07:41:59;102630.03;;;4.29;100.00
55916;BME280;41826;53.246;-6.670;2023-01-28T07:44:24;102622.03;;;4.36;100.00
55916;BME280;41826;53.246;-6.670;2023-01-28T07:46:50;102628.97;;;4.35;100.00
55916;BME280;41826;53.246;-6.670;2023-01-28T07:49:15;102627.44;;;4.29;100.00
55916;BME280;41826;53.246;-6.670;2023-01-28T07:51:41;102629.63;;;4.42;100.00
55916;BME280;41826;53.246;-6.670;2023-01-28T07:54:07;102626.09;;;4.43;100.00
55916;BME280;41826;53.246;-6.670;2023-01-28T07:56:33;102622.81;;;4.38;100.00
55916;BME280;41826;53.246;-6.670;2023-01-28T07:58:58;102631.84;;;4.27;100.00
55916;BME280;41826;53.246;-6.670;2023-01-28T08:01:24;102621.94;;;4.39;100.00
55916;BME280;41826;53.246;-6.670;2023-01-28T08:03:51;102629.94;;;4.32;100.00
55916;BME280;41826;53.246;-6.670;2023-01-28T08:06:17;102636.84;;;4.33;100.00
55916;BME280;41826;53.246;-6.670;2023-01-28T08:08:42;102630.53;;;4.41;100.00
55916;BME280;41826;53.246;-6.670;2023-01-28T08:11:09;102634.81;;;4.42;100.00
55916;BME280;41826;53.246;-6.670;2023-01-28T08:13:37;102633.00;;;4.44;100.00
55916;BME280;41826;53.246;-6.670;2023-01-28T08:16:04;102629.50;;;4.45;100.00
55916;BME280;41826;53.246;-6.670;2023-01-28T08:18:30;102634.16;;;4.35;100.00
55916;BME280;41826;53.246;-6.670;2023-01-28T08:20:56;102630.28;;;4.47;100.00
55916;BME280;41826;53.246;-6.670;2023-01-28T08:23:22;102619.78;;;4.50;100.00
55916;BME280;41826;53.246;-6.670;2023-01-28T08:25:48;102626.78;;;4.48;100.00
55916;BME280;41826;53.246;-6.670;2023-01-28T08:28:15;102615.19;;;4.56;100.00
55916;BME280;41826;53.246;-6.670;2023-01-28T08:30:41;102614.56;;;4.50;100.00
55916;BME280;41826;53.246;-6.670;2023-01-28T08:33:08;102621.56;;;4.48;100.00
55916;BME280;41826;53.246;-6.670;2023-01-28T08:35:34;102624.94;;;4.51;100.00
55916;BME280;41826;53.246;-6.670;2023-01-28T08:38:01;102621.25;;;4.57;100.00
55916;BME280;41826;53.246;-6.670;2023-01-28T08:40:27;102614.28;;;4.57;100.00
55916;BME280;41826;53.246;-6.670;2023-01-28T08:42:53;102619.56;;;4.56;100.00
55916;BME280;41826;53.246;-6.670;2023-01-28T08:45:20;102610.56;;;4.65;100.00
55916;BME280;41826;53.246;-6.670;2023-01-28T08:48:01;102611.06;;;4.74;100.00
55916;BME280;41826;53.246;-6.670;2023-01-28T08:50:29;102618.06;;;4.72;100.00
55916;BME280;41826;53.246;-6.670;2023-01-28T08:52:58;102612.44;;;4.61;100.00
55916;BME280;41826;53.246;-6.670;2023-01-28T08:55:25;102611.63;;;4.59;100.00
55916;BME280;41826;53.246;-6.670;2023-01-28T08:57:51;102603.72;;;4.62;100.00
55916;BME280;41826;53.246;-6.670;2023-01-28T09:00:18;102609.31;;;4.51;100.00
55916;BME280;41826;53.246;-6.670;2023-01-28T09:02:44;102608.06;;;4.62;100.00
55916;BME280;41826;53.246;-6.670;2023-01-28T09:05:10;102604.38;;;4.67;100.00
55916;BME280;41826;53.246;-6.670;2023-01-28T09:07:36;102605.97;;;4.71;100.00
55916;BME280;41826;53.246;-6.670;2023-01-28T09:10:03;102597.38;;;4.69;100.00
55916;BME280;41826;53.246;-6.670;2023-01-28T09:12:28;102597.28;;;4.71;100.00
55916;BME280;41826;53.246;-6.670;2023-01-28T09:14:54;102586.63;;;4.78;100.00
55916;BME280;41826;53.246;-6.670;2023-01-28T09:17:20;102590.91;;;4.80;100.00
55916;BME280;41826;53.246;-6.670;2023-01-28T09:19:45;102591.88;;;4.77;100.00
55916;BME280;41826;53.246;-6.670;2023-01-28T09:22:11;102587.16;;;4.87;100.00
55916;BME280;41826;53.246;-6.670;2023-01-28T09:24:36;102587.22;;;4.85;100.00
55916;BME280;41826;53.246;-6.670;2023-01-28T09:27:02;102582.84;;;4.86;100.00
55916;BME280;41826;53.246;-6.670;2023-01-28T09:29:27;102583.47;;;4.92;100.00
55916;BME280;41826;53.246;-6.670;2023-01-28T09:31:52;102587.84;;;4.92;100.00
55916;BME280;41826;53.246;-6.670;2023-01-28T09:34:18;102580.69;;;4.97;100.00
55916;BME280;41826;53.246;-6.670;2023-01-28T09:36:43;102587.00;;;4.91;100.00
55916;BME280;41826;53.246;-6.670;2023-01-28T09:39:09;102586.50;;;4.82;100.00
55916;BME280;41826;53.246;-6.670;2023-01-28T09:44:43;102576.31;;;4.97;100.00
55916;BME280;41826;53.246;-6.670;2023-01-28T09:47:29;102567.56;;;5.00;100.00
55916;BME280;41826;53.246;-6.670;2023-01-28T09:49:58;102565.88;;;4.99;100.00
55916;BME280;41826;53.246;-6.670;2023-01-28T09:52:25;102557.13;;;5.00;100.00
55916;BME280;41826;53.246;-6.670;2023-01-28T09:54:59;102569.31;;;4.99;100.00
55916;BME280;41826;53.246;-6.670;2023-01-28T09:57:36;102566.63;;;5.01;100.00
55916;BME280;41826;53.246;-6.670;2023-01-28T10:00:12;102569.13;;;5.04;100.00
55916;BME280;41826;53.246;-6.670;2023-01-28T10:02:50;102569.19;;;5.03;100.00
55916;BME280;41826;53.246;-6.670;2023-01-28T10:05:25;102569.50;;;5.17;100.00
55916;BME280;41826;53.246;-6.670;2023-01-28T10:11:28;102579.50;;;5.26;100.00
55916;BME280;41826;53.246;-6.670;2023-01-28T10:16:32;102583.31;;;5.39;100.00
55916;BME280;41826;53.246;-6.670;2023-01-28T10:19:39;102585.28;;;5.34;100.00
55916;BME280;41826;53.246;-6.670;2023-01-28T10:22:13;102595.44;;;5.40;100.00
55916;BME280;41826;53.246;-6.670;2023-01-28T10:24:46;102590.81;;;5.47;100.00
55916;BME280;41826;53.246;-6.670;2023-01-28T10:27:20;102590.34;;;5.37;100.00
55916;BME280;41826;53.246;-6.670;2023-01-28T10:29:47;102594.59;;;5.40;100.00
55916;BME280;41826;53.246;-6.670;2023-01-28T10:34:55;102603.72;;;5.50;100.00
55916;BME280;41826;53.246;-6.670;2023-01-28T10:37:23;102598.31;;;5.55;100.00
55916;BME280;41826;53.246;-6.670;2023-01-28T10:39:52;102610.28;;;5.59;100.00
55916;BME280;41826;53.246;-6.670;2023-01-28T10:42:34;102610.50;;;5.75;100.00
55916;BME280;41826;53.246;-6.670;2023-01-28T10:45:04;102608.09;;;5.70;100.00
55916;BME280;41826;53.246;-6.670;2023-01-28T10:47:37;102604.09;;;5.82;100.00
55916;BME280;41826;53.246;-6.670;2023-01-28T10:50:04;102625.88;;;5.81;100.00
55916;BME280;41826;53.246;-6.670;2023-01-28T10:52:30;102617.22;;;5.80;100.00
55916;BME280;41826;53.246;-6.670;2023-01-28T10:55:00;102622.34;;;5.82;100.00
55916;BME280;41826;53.246;-6.670;2023-01-28T10:57:26;102620.38;;;5.87;100.00
55916;BME280;41826;53.246;-6.670;2023-01-28T10:59:52;102618.41;;;5.94;100.00
55916;BME280;41826;53.246;-6.670;2023-01-28T11:02:26;102619.00;;;6.00;100.00
55916;BME280;41826;53.246;-6.670;2023-01-28T11:05:23;102622.81;;;5.92;100.00
55916;BME280;41826;53.246;-6.670;2023-01-28T11:08:13;102615.75;;;5.95;100.00
55916;BME280;41826;53.246;-6.670;2023-01-28T11:10:40;102618.13;;;6.00;100.00
55916;BME280;41826;53.246;-6.670;2023-01-28T11:13:21;102611.75;;;6.07;100.00
55916;BME280;41826;53.246;-6.670;2023-01-28T11:16:06;102611.59;;;6.10;100.00
55916;BME280;41826;53.246;-6.670;2023-01-28T11:18:39;102608.09;;;6.11;100.00
55916;BME280;41826;53.246;-6.670;2023-01-28T11:21:06;102608.00;;;6.13;100.00
55916;BME280;41826;53.246;-6.670;2023-01-28T11:23:56;102607.03;;;6.15;100.00
55916;BME280;41826;53.246;-6.670;2023-01-28T11:26:30;102603.66;;;6.13;100.00
55916;BME280;41826;53.246;-6.670;2023-01-28T11:28:57;102607.03;;;6.15;100.00
55916;BME280;41826;53.246;-6.670;2023-01-28T11:31:23;102602.19;;;6.26;100.00
55916;BME280;41826;53.246;-6.670;2023-01-28T11:36:22;102607.91;;;6.35;100.00
55916;BME280;41826;53.246;-6.670;2023-01-28T11:38:49;102611.50;;;6.32;100.00
55916;BME280;41826;53.246;-6.670;2023-01-28T11:41:15;102610.28;;;6.41;100.00
55916;BME280;41826;53.246;-6.670;2023-01-28T11:43:41;102610.91;;;6.46;100.00
55916;BME280;41826;53.246;-6.670;2023-01-28T11:46:19;102611.81;;;6.45;100.00
55916;BME280;41826;53.246;-6.670;2023-01-28T11:48:59;102616.41;;;6.59;100.00
55916;BME280;41826;53.246;-6.670;2023-01-28T11:51:39;102611.25;;;6.57;100.00
55916;BME280;41826;53.246;-6.670;2023-01-28T12:10:07;102605.88;;;6.60;100.00
55916;BME280;41826;53.246;-6.670;2023-01-28T12:15:52;102600.66;;;6.60;100.00
55916;BME280;41826;53.246;-6.670;2023-01-28T12:24:39;102583.38;;;6.77;100.00
55916;BME280;41826;53.246;-6.670;2023-01-28T12:30:14;102588.19;;;6.67;100.00
55916;BME280;41826;53.246;-6.670;2023-01-28T12:38:47;102580.41;;;6.84;100.00
55916;BME280;41826;53.246;-6.670;2023-01-28T12:41:22;102578.59;;;6.86;100.00
55916;BME280;41826;53.246;-6.670;2023-01-28T12:43:59;102585.81;;;6.99;100.00
55916;BME280;41826;53.246;-6.670;2023-01-28T12:46:49;102591.34;;;6.92;100.00
55916;BME280;41826;53.246;-6.670;2023-01-28T12:49:29;102581.63;;;7.13;100.00
55916;BME280;41826;53.246;-6.670;2023-01-28T12:57:28;102607.50;;;7.18;100.00
55916;BME280;41826;53.246;-6.670;2023-01-28T13:03:01;102600.69;;;7.33;100.00
55916;BME280;41826;53.246;-6.670;2023-01-28T13:05:36;102616.91;;;7.22;100.00
55916;BME280;41826;53.246;-6.670;2023-01-28T13:08:10;102612.31;;;7.27;100.00
55916;BME280;41826;53.246;-6.670;2023-01-28T13:10:44;102614.13;;;7.25;100.00
55916;BME280;41826;53.246;-6.670;2023-01-28T13:15:44;102616.41;;;7.14;100.00
55916;BME280;41826;53.246;-6.670;2023-01-28T13:20:55;102619.53;;;7.22;100.00
55916;BME280;41826;53.246;-6.670;2023-01-28T13:28:45;102609.72;;;7.45;100.00
55916;BME280;41826;53.246;-6.670;2023-01-28T13:31:13;102603.72;;;7.60;100.00
55916;BME280;41826;53.246;-6.670;2023-01-28T13:36:43;102620.00;;;7.48;100.00
55916;BME280;41826;53.246;-6.670;2023-01-28T13:41:54;102621.03;;;7.26;100.00
55916;BME280;41826;53.246;-6.670;2023-01-28T13:44:32;102612.69;;;7.20;100.00
55916;BME280;41826;53.246;-6.670;2023-01-28T13:49:37;102589.94;;;6.85;100.00
55916;BME280;41826;53.246;-6.670;2023-01-28T13:52:14;102583.38;;;7.13;100.00
55916;BME280;41826;53.246;-6.670;2023-01-28T13:54:56;102569.16;;;7.19;100.00
55916;BME280;41826;53.246;-6.670;2023-01-28T14:06:10;102534.78;;;7.28;100.00
55916;BME280;41826;53.246;-6.670;2023-01-28T14:17:47;102520.84;;;6.92;100.00
55916;BME280;41826;53.246;-6.670;2023-01-28T14:20:34;102510.22;;;6.78;100.00
55916;BME280;41826;53.246;-6.670;2023-01-28T14:23:05;102506.94;;;6.92;100.00
55916;BME280;41826;53.246;-6.670;2023-01-28T14:26:03;102509.34;;;6.97;100.00
55916;BME280;41826;53.246;-6.670;2023-01-28T14:31:27;102493.97;;;7.08;100.00
55916;BME280;41826;53.246;-6.670;2023-01-28T14:33:59;102499.75;;;7.14;100.00
55916;BME280;41826;53.246;-6.670;2023-01-28T14:36:29;102519.53;;;7.19;100.00
55916;BME280;41826;53.246;-6.670;2023-01-28T14:38:55;102509.03;;;7.37;100.00
55916;BME280;41826;53.246;-6.670;2023-01-28T14:41:26;102513.31;;;7.56;100.00
55916;BME280;41826;53.246;-6.670;2023-01-28T14:43:55;102528.53;;;7.48;100.00